Terminal Aerodrome Forecast
Issued by NWS

Home | Current Version | Previous Version | Text Only | Print | Product List | Glossary On
Versions: 1 2 3 4 5 6 7 8 9 10 11 12 13 14 15 16 17 18 19 20 21 22 23 24 25 26 27 28 29 30 31 32 33 34 35 36 37 38 39 40 41 42 43 44
000
FTUS42 KRAH 201743
TAFRWI
TAF
KRWI 201743Z 2018/2118 22009KT P6SM BKN030
     FM201900 21009KT P6SM VCSH SCT035
      TEMPO 2019/2022 BKN035
     FM210000 VRB04KT P6SM BKN100
     FM210800 VRB02KT P6SM BKN010
      TEMPO 2109/2112 3SM BR OVC005
     FM211500 23006KT P6SM SCT150=

USA.gov is the U.S. government's official web portal to all federal, state and local government web resources and services.